sensor_id;sensor_type;location;lat;lon;timestamp;P1;durP1;ratioP1;P2;durP2;ratioP2
19089;SDS011;9677;50.656;13.064;2022-10-16T00:00:07;9.80;;;8.90;;
19089;SDS011;9677;50.656;13.064;2022-10-16T00:02:37;9.50;;;8.60;;
19089;SDS011;9677;50.656;13.064;2022-10-16T00:05:05;9.50;;;8.63;;
19089;SDS011;9677;50.656;13.064;2022-10-16T00:07:34;9.57;;;8.73;;
19089;SDS011;9677;50.656;13.064;2022-10-16T00:10:03;9.40;;;8.60;;
19089;SDS011;9677;50.656;13.064;2022-10-16T00:12:32;9.53;;;8.73;;
19089;SDS011;9677;50.656;13.064;2022-10-16T00:15:03;10.83;;;9.00;;
19089;SDS011;9677;50.656;13.064;2022-10-16T00:17:33;9.80;;;8.90;;
19089;SDS011;9677;50.656;13.064;2022-10-16T00:20:02;9.93;;;9.03;;
19089;SDS011;9677;50.656;13.064;2022-10-16T00:22:32;9.63;;;8.80;;
19089;SDS011;9677;50.656;13.064;2022-10-16T00:25:01;10.07;;;9.17;;
19089;SDS011;9677;50.656;13.064;2022-10-16T00:27:29;9.90;;;9.00;;
19089;SDS011;9677;50.656;13.064;2022-10-16T00:29:58;9.77;;;8.87;;
19089;SDS011;9677;50.656;13.064;2022-10-16T00:32:28;9.83;;;8.93;;
19089;SDS011;9677;50.656;13.064;2022-10-16T00:34:57;10.53;;;9.00;;
19089;SDS011;9677;50.656;13.064;2022-10-16T00:37:25;9.90;;;9.00;;
19089;SDS011;9677;50.656;13.064;2022-10-16T00:39:54;9.90;;;9.00;;
19089;SDS011;9677;50.656;13.064;2022-10-16T00:42:22;9.53;;;8.70;;
19089;SDS011;9677;50.656;13.064;2022-10-16T00:44:52;10.53;;;9.60;;
19089;SDS011;9677;50.656;13.064;2022-10-16T00:47:24;9.50;;;8.67;;
19089;SDS011;9677;50.656;13.064;2022-10-16T00:49:58;9.67;;;8.77;;
19089;SDS011;9677;50.656;13.064;2022-10-16T00:52:34;9.90;;;8.90;;
19089;SDS011;9677;50.656;13.064;2022-10-16T00:55:03;9.70;;;8.83;;
19089;SDS011;9677;50.656;13.064;2022-10-16T00:57:34;9.53;;;8.73;;
19089;SDS011;9677;50.656;13.064;2022-10-16T01:00:04;9.40;;;8.60;;
19089;SDS011;9677;50.656;13.064;2022-10-16T01:02:37;9.67;;;8.87;;
19089;SDS011;9677;50.656;13.064;2022-10-16T01:05:06;9.17;;;8.40;;
19089;SDS011;9677;50.656;13.064;2022-10-16T01:07:38;9.67;;;8.67;;
19089;SDS011;9677;50.656;13.064;2022-10-16T01:10:17;9.57;;;8.70;;
19089;SDS011;9677;50.656;13.064;2022-10-16T01:12:56;9.50;;;8.70;;
19089;SDS011;9677;50.656;13.064;2022-10-16T01:15:29;9.67;;;8.77;;
19089;SDS011;9677;50.656;13.064;2022-10-16T01:18:05;9.60;;;8.70;;
19089;SDS011;9677;50.656;13.064;2022-10-16T01:20:40;10.00;;;8.70;;
19089;SDS011;9677;50.656;13.064;2022-10-16T01:23:19;9.60;;;8.80;;
19089;SDS011;9677;50.656;13.064;2022-10-16T01:25:59;9.20;;;8.40;;
19089;SDS011;9677;50.656;13.064;2022-10-16T01:28:45;9.40;;;8.60;;
19089;SDS011;9677;50.656;13.064;2022-10-16T01:31:22;9.23;;;8.43;;
19089;SDS011;9677;50.656;13.064;2022-10-16T01:33:56;9.37;;;8.57;;
19089;SDS011;9677;50.656;13.064;2022-10-16T01:36:31;9.33;;;8.53;;
19089;SDS011;9677;50.656;13.064;2022-10-16T01:39:06;9.63;;;8.63;;
19089;SDS011;9677;50.656;13.064;2022-10-16T01:41:39;9.47;;;8.67;;
19089;SDS011;9677;50.656;13.064;2022-10-16T01:44:13;9.50;;;8.70;;
19089;SDS011;9677;50.656;13.064;2022-10-16T01:46:47;9.57;;;8.67;;
19089;SDS011;9677;50.656;13.064;2022-10-16T01:49:18;9.50;;;8.70;;
19089;SDS011;9677;50.656;13.064;2022-10-16T01:51:52;9.90;;;8.80;;
19089;SDS011;9677;50.656;13.064;2022-10-16T01:54:25;13.97;;;8.70;;
19089;SDS011;9677;50.656;13.064;2022-10-16T01:56:58;9.30;;;8.50;;
19089;SDS011;9677;50.656;13.064;2022-10-16T01:59:29;9.50;;;8.70;;
19089;SDS011;9677;50.656;13.064;2022-10-16T02:02:04;9.23;;;8.43;;
19089;SDS011;9677;50.656;13.064;2022-10-16T02:04:57;9.40;;;8.40;;
19089;SDS011;9677;50.656;13.064;2022-10-16T02:07:31;9.50;;;8.70;;
19089;SDS011;9677;50.656;13.064;2022-10-16T02:09:59;9.30;;;8.50;;
19089;SDS011;9677;50.656;13.064;2022-10-16T02:12:29;9.70;;;8.80;;
19089;SDS011;9677;50.656;13.064;2022-10-16T02:15:02;9.33;;;8.53;;
19089;SDS011;9677;50.656;13.064;2022-10-16T02:17:31;9.23;;;8.43;;
19089;SDS011;9677;50.656;13.064;2022-10-16T02:20:00;9.20;;;8.40;;
19089;SDS011;9677;50.656;13.064;2022-10-16T02:22:32;9.43;;;8.63;;
19089;SDS011;9677;50.656;13.064;2022-10-16T02:25:05;9.40;;;8.60;;
19089;SDS011;9677;50.656;13.064;2022-10-16T02:27:39;9.43;;;8.63;;
19089;SDS011;9677;50.656;13.064;2022-10-16T02:30:19;9.63;;;8.73;;
19089;SDS011;9677;50.656;13.064;2022-10-16T02:32:52;14.57;;;8.57;;
19089;SDS011;9677;50.656;13.064;2022-10-16T02:35:22;9.30;;;8.50;;
19089;SDS011;9677;50.656;13.064;2022-10-16T02:37:52;12.63;;;8.80;;
19089;SDS011;9677;50.656;13.064;2022-10-16T02:40:21;9.40;;;8.60;;
19089;SDS011;9677;50.656;13.064;2022-10-16T02:42:52;9.30;;;8.50;;
19089;SDS011;9677;50.656;13.064;2022-10-16T02:45:24;9.50;;;8.50;;
19089;SDS011;9677;50.656;13.064;2022-10-16T02:47:52;9.53;;;8.73;;
19089;SDS011;9677;50.656;13.064;2022-10-16T02:50:21;9.63;;;8.63;;
19089;SDS011;9677;50.656;13.064;2022-10-16T02:52:51;9.53;;;8.63;;
19089;SDS011;9677;50.656;13.064;2022-10-16T02:55:20;9.73;;;8.83;;
19089;SDS011;9677;50.656;13.064;2022-10-16T02:57:48;10.27;;;9.17;;
19089;SDS011;9677;50.656;13.064;2022-10-16T03:00:17;9.60;;;8.80;;
19089;SDS011;9677;50.656;13.064;2022-10-16T03:02:47;9.20;;;8.40;;
19089;SDS011;9677;50.656;13.064;2022-10-16T03:05:16;9.20;;;8.40;;
19089;SDS011;9677;50.656;13.064;2022-10-16T03:07:45;9.17;;;8.40;;
19089;SDS011;9677;50.656;13.064;2022-10-16T03:10:14;9.27;;;8.47;;
19089;SDS011;9677;50.656;13.064;2022-10-16T03:12:42;9.50;;;8.70;;
19089;SDS011;9677;50.656;13.064;2022-10-16T03:15:11;9.20;;;8.40;;
19089;SDS011;9677;50.656;13.064;2022-10-16T03:17:39;9.30;;;8.50;;
19089;SDS011;9677;50.656;13.064;2022-10-16T03:20:10;9.50;;;8.70;;
19089;SDS011;9677;50.656;13.064;2022-10-16T03:22:38;9.43;;;8.63;;
19089;SDS011;9677;50.656;13.064;2022-10-16T03:25:07;9.63;;;8.80;;
19089;SDS011;9677;50.656;13.064;2022-10-16T03:27:36;9.47;;;8.53;;
19089;SDS011;9677;50.656;13.064;2022-10-16T03:30:05;15.53;;;8.80;;
19089;SDS011;9677;50.656;13.064;2022-10-16T03:32:35;9.60;;;8.60;;
19089;SDS011;9677;50.656;13.064;2022-10-16T03:35:04;9.30;;;8.40;;
19089;SDS011;9677;50.656;13.064;2022-10-16T03:37:35;9.47;;;8.50;;
19089;SDS011;9677;50.656;13.064;2022-10-16T03:40:04;9.50;;;8.60;;
19089;SDS011;9677;50.656;13.064;2022-10-16T03:42:34;9.27;;;8.50;;
19089;SDS011;9677;50.656;13.064;2022-10-16T03:45:02;9.43;;;8.63;;
19089;SDS011;9677;50.656;13.064;2022-10-16T03:47:32;12.27;;;8.70;;
19089;SDS011;9677;50.656;13.064;2022-10-16T03:50:01;9.20;;;8.40;;
19089;SDS011;9677;50.656;13.064;2022-10-16T03:52:30;9.70;;;8.83;;
19089;SDS011;9677;50.656;13.064;2022-10-16T03:55:00;9.73;;;8.57;;
19089;SDS011;9677;50.656;13.064;2022-10-16T03:57:29;9.13;;;8.40;;
19089;SDS011;9677;50.656;13.064;2022-10-16T03:59:57;9.43;;;8.63;;
19089;SDS011;9677;50.656;13.064;2022-10-16T04:02:26;9.47;;;8.67;;
19089;SDS011;9677;50.656;13.064;2022-10-16T04:04:55;9.83;;;9.03;;
19089;SDS011;9677;50.656;13.064;2022-10-16T04:07:23;9.13;;;8.43;;
19089;SDS011;9677;50.656;13.064;2022-10-16T04:09:52;9.10;;;8.40;;
19089;SDS011;9677;50.656;13.064;2022-10-16T04:12:22;9.23;;;8.40;;
19089;SDS011;9677;50.656;13.064;2022-10-16T04:14:50;9.50;;;8.60;;
19089;SDS011;9677;50.656;13.064;2022-10-16T04:17:19;9.30;;;8.50;;
19089;SDS011;9677;50.656;13.064;2022-10-16T04:19:48;9.33;;;8.53;;
19089;SDS011;9677;50.656;13.064;2022-10-16T04:22:16;9.53;;;8.73;;
19089;SDS011;9677;50.656;13.064;2022-10-16T04:24:45;9.33;;;8.53;;
19089;SDS011;9677;50.656;13.064;2022-10-16T04:27:13;9.30;;;8.50;;
19089;SDS011;9677;50.656;13.064;2022-10-16T04:29:43;9.33;;;8.53;;
19089;SDS011;9677;50.656;13.064;2022-10-16T04:32:12;9.20;;;8.40;;
19089;SDS011;9677;50.656;13.064;2022-10-16T04:34:40;9.27;;;8.50;;
19089;SDS011;9677;50.656;13.064;2022-10-16T04:37:09;9.30;;;8.50;;
19089;SDS011;9677;50.656;13.064;2022-10-16T04:39:37;9.00;;;8.30;;
19089;SDS011;9677;50.656;13.064;2022-10-16T04:42:06;9.47;;;8.40;;
19089;SDS011;9677;50.656;13.064;2022-10-16T04:44:35;9.20;;;8.40;;
19089;SDS011;9677;50.656;13.064;2022-10-16T04:47:05;9.17;;;8.47;;
19089;SDS011;9677;50.656;13.064;2022-10-16T04:49:33;9.17;;;8.37;;
19089;SDS011;9677;50.656;13.064;2022-10-16T04:52:02;8.90;;;8.20;;
19089;SDS011;9677;50.656;13.064;2022-10-16T04:54:31;8.93;;;8.23;;
19089;SDS011;9677;50.656;13.064;2022-10-16T04:57:00;8.97;;;8.27;;
19089;SDS011;9677;50.656;13.064;2022-10-16T04:59:29;9.03;;;8.33;;
19089;SDS011;9677;50.656;13.064;2022-10-16T05:01:57;8.90;;;8.10;;
19089;SDS011;9677;50.656;13.064;2022-10-16T05:04:27;9.37;;;8.30;;
19089;SDS011;9677;50.656;13.064;2022-10-16T05:06:56;9.17;;;8.37;;
19089;SDS011;9677;50.656;13.064;2022-10-16T05:09:24;9.20;;;8.50;;
19089;SDS011;9677;50.656;13.064;2022-10-16T05:11:53;9.10;;;8.37;;
19089;SDS011;9677;50.656;13.064;2022-10-16T05:14:22;8.90;;;8.20;;
19089;SDS011;9677;50.656;13.064;2022-10-16T05:16:50;9.00;;;8.30;;
19089;SDS011;9677;50.656;13.064;2022-10-16T05:19:19;8.87;;;8.17;;
19089;SDS011;9677;50.656;13.064;2022-10-16T05:21:54;8.90;;;8.20;;
19089;SDS011;9677;50.656;13.064;2022-10-16T05:24:26;8.90;;;8.20;;
19089;SDS011;9677;50.656;13.064;2022-10-16T05:26:55;9.00;;;8.30;;
19089;SDS011;9677;50.656;13.064;2022-10-16T05:32:45;9.30;;;8.50;;
19089;SDS011;9677;50.656;13.064;2022-10-16T05:35:15;8.90;;;8.20;;
19089;SDS011;9677;50.656;13.064;2022-10-16T05:37:46;8.80;;;8.10;;
19089;SDS011;9677;50.656;13.064;2022-10-16T05:40:16;8.83;;;8.13;;
19089;SDS011;9677;50.656;13.064;2022-10-16T05:42:44;8.90;;;8.20;;
19089;SDS011;9677;50.656;13.064;2022-10-16T05:45:13;8.80;;;8.10;;
19089;SDS011;9677;50.656;13.064;2022-10-16T05:47:42;9.03;;;8.33;;
19089;SDS011;9677;50.656;13.064;2022-10-16T05:50:10;9.00;;;8.30;;
19089;SDS011;9677;50.656;13.064;2022-10-16T05:52:39;9.30;;;8.50;;
19089;SDS011;9677;50.656;13.064;2022-10-16T05:55:09;8.90;;;8.20;;
19089;SDS011;9677;50.656;13.064;2022-10-16T05:57:38;9.30;;;8.50;;
19089;SDS011;9677;50.656;13.064;2022-10-16T06:00:07;8.90;;;8.20;;
19089;SDS011;9677;50.656;13.064;2022-10-16T06:02:40;9.13;;;8.33;;
19089;SDS011;9677;50.656;13.064;2022-10-16T06:05:09;9.00;;;8.30;;
19089;SDS011;9677;50.656;13.064;2022-10-16T06:07:38;8.90;;;8.20;;
19089;SDS011;9677;50.656;13.064;2022-10-16T06:10:08;9.10;;;8.20;;
19089;SDS011;9677;50.656;13.064;2022-10-16T06:12:37;8.90;;;8.20;;
19089;SDS011;9677;50.656;13.064;2022-10-16T06:15:06;8.90;;;8.20;;
19089;SDS011;9677;50.656;13.064;2022-10-16T06:17:35;9.10;;;8.30;;
19089;SDS011;9677;50.656;13.064;2022-10-16T06:20:04;9.20;;;8.40;;
19089;SDS011;9677;50.656;13.064;2022-10-16T06:22:33;9.27;;;8.47;;
19089;SDS011;9677;50.656;13.064;2022-10-16T06:25:03;9.20;;;8.30;;
19089;SDS011;9677;50.656;13.064;2022-10-16T06:27:34;9.30;;;8.40;;
19089;SDS011;9677;50.656;13.064;2022-10-16T06:30:03;8.70;;;8.00;;
19089;SDS011;9677;50.656;13.064;2022-10-16T06:32:33;9.23;;;8.43;;
19089;SDS011;9677;50.656;13.064;2022-10-16T06:35:02;9.43;;;8.63;;
19089;SDS011;9677;50.656;13.064;2022-10-16T06:37:30;9.17;;;8.37;;
19089;SDS011;9677;50.656;13.064;2022-10-16T06:39:59;9.30;;;8.50;;
19089;SDS011;9677;50.656;13.064;2022-10-16T06:42:30;9.07;;;8.37;;
19089;SDS011;9677;50.656;13.064;2022-10-16T06:45:00;8.80;;;8.10;;
19089;SDS011;9677;50.656;13.064;2022-10-16T06:47:29;9.20;;;8.40;;
19089;SDS011;9677;50.656;13.064;2022-10-16T06:49:57;8.90;;;8.20;;
19089;SDS011;9677;50.656;13.064;2022-10-16T06:52:27;9.07;;;8.30;;
19089;SDS011;9677;50.656;13.064;2022-10-16T06:54:55;9.50;;;8.70;;
19089;SDS011;9677;50.656;13.064;2022-10-16T06:57:24;8.90;;;8.20;;
19089;SDS011;9677;50.656;13.064;2022-10-16T06:59:53;9.07;;;8.37;;
19089;SDS011;9677;50.656;13.064;2022-10-16T07:02:23;8.80;;;8.10;;
19089;SDS011;9677;50.656;13.064;2022-10-16T07:04:51;9.47;;;8.67;;
19089;SDS011;9677;50.656;13.064;2022-10-16T07:07:20;9.37;;;8.57;;
19089;SDS011;9677;50.656;13.064;2022-10-16T07:09:51;9.20;;;8.40;;
19089;SDS011;9677;50.656;13.064;2022-10-16T07:12:19;8.80;;;8.10;;
19089;SDS011;9677;50.656;13.064;2022-10-16T07:14:48;9.17;;;8.40;;
19089;SDS011;9677;50.656;13.064;2022-10-16T07:17:18;9.60;;;8.10;;
19089;SDS011;9677;50.656;13.064;2022-10-16T07:19:48;8.80;;;8.10;;
19089;SDS011;9677;50.656;13.064;2022-10-16T07:22:19;9.20;;;8.30;;
19089;SDS011;9677;50.656;13.064;2022-10-16T07:24:48;8.90;;;8.17;;
19089;SDS011;9677;50.656;13.064;2022-10-16T07:27:18;8.90;;;8.20;;
19089;SDS011;9677;50.656;13.064;2022-10-16T07:29:48;8.80;;;8.10;;
19089;SDS011;9677;50.656;13.064;2022-10-16T07:32:17;8.90;;;8.20;;
19089;SDS011;9677;50.656;13.064;2022-10-16T07:34:46;8.80;;;8.10;;
19089;SDS011;9677;50.656;13.064;2022-10-16T07:37:16;8.80;;;8.10;;
19089;SDS011;9677;50.656;13.064;2022-10-16T07:39:44;9.30;;;8.40;;
19089;SDS011;9677;50.656;13.064;2022-10-16T07:42:13;9.03;;;8.13;;
19089;SDS011;9677;50.656;13.064;2022-10-16T07:44:41;9.10;;;8.30;;
19089;SDS011;9677;50.656;13.064;2022-10-16T07:47:10;8.80;;;8.10;;
19089;SDS011;9677;50.656;13.064;2022-10-16T07:49:39;9.10;;;8.20;;
19089;SDS011;9677;50.656;13.064;2022-10-16T07:52:08;8.70;;;8.00;;
19089;SDS011;9677;50.656;13.064;2022-10-16T07:54:38;9.00;;;8.30;;
19089;SDS011;9677;50.656;13.064;2022-10-16T07:57:06;8.73;;;8.03;;
19089;SDS011;9677;50.656;13.064;2022-10-16T07:59:35;8.90;;;8.00;;
19089;SDS011;9677;50.656;13.064;2022-10-16T08:02:03;8.90;;;8.10;;
19089;SDS011;9677;50.656;13.064;2022-10-16T08:04:32;8.90;;;8.17;;
19089;SDS011;9677;50.656;13.064;2022-10-16T08:07:01;8.60;;;7.90;;
19089;SDS011;9677;50.656;13.064;2022-10-16T08:09:30;8.80;;;8.00;;
19089;SDS011;9677;50.656;13.064;2022-10-16T08:11:59;8.63;;;7.93;;
19089;SDS011;9677;50.656;13.064;2022-10-16T08:14:28;11.40;;;8.00;;
19089;SDS011;9677;50.656;13.064;2022-10-16T08:16:57;8.70;;;8.00;;
19089;SDS011;9677;50.656;13.064;2022-10-16T08:19:25;8.97;;;8.17;;
19089;SDS011;9677;50.656;13.064;2022-10-16T08:21:54;8.70;;;8.00;;
19089;SDS011;9677;50.656;13.064;2022-10-16T08:24:23;12.77;;;8.20;;
19089;SDS011;9677;50.656;13.064;2022-10-16T08:26:53;8.80;;;8.10;;
19089;SDS011;9677;50.656;13.064;2022-10-16T08:29:23;8.80;;;8.00;;
19089;SDS011;9677;50.656;13.064;2022-10-16T08:31:51;8.83;;;8.13;;
19089;SDS011;9677;50.656;13.064;2022-10-16T08:34:20;8.87;;;8.17;;
19089;SDS011;9677;50.656;13.064;2022-10-16T08:36:49;8.60;;;7.90;;
19089;SDS011;9677;50.656;13.064;2022-10-16T08:39:17;8.63;;;7.93;;
19089;SDS011;9677;50.656;13.064;2022-10-16T08:47:56;8.53;;;7.83;;
19089;SDS011;9677;50.656;13.064;2022-10-16T08:50:38;8.73;;;8.03;;
19089;SDS011;9677;50.656;13.064;2022-10-16T08:53:10;8.70;;;8.00;;
19089;SDS011;9677;50.656;13.064;2022-10-16T08:55:46;8.80;;;8.00;;
19089;SDS011;9677;50.656;13.064;2022-10-16T08:58:20;8.67;;;7.90;;
19089;SDS011;9677;50.656;13.064;2022-10-16T09:00:53;8.60;;;7.90;;
19089;SDS011;9677;50.656;13.064;2022-10-16T09:03:27;8.93;;;8.13;;
19089;SDS011;9677;50.656;13.064;2022-10-16T09:06:26;8.70;;;8.00;;
19089;SDS011;9677;50.656;13.064;2022-10-16T09:09:14;8.60;;;7.90;;
19089;SDS011;9677;50.656;13.064;2022-10-16T09:12:02;8.80;;;8.10;;
19089;SDS011;9677;50.656;13.064;2022-10-16T09:14:44;8.50;;;7.80;;
19089;SDS011;9677;50.656;13.064;2022-10-16T09:17:27;9.10;;;8.30;;
19089;SDS011;9677;50.656;13.064;2022-10-16T09:20:19;8.53;;;7.83;;
19089;SDS011;9677;50.656;13.064;2022-10-16T09:23:00;8.60;;;7.90;;
19089;SDS011;9677;50.656;13.064;2022-10-16T09:25:43;8.70;;;7.97;;
19089;SDS011;9677;50.656;13.064;2022-10-16T09:28:15;8.50;;;7.80;;
19089;SDS011;9677;50.656;13.064;2022-10-16T09:30:46;9.00;;;8.20;;
19089;SDS011;9677;50.656;13.064;2022-10-16T09:33:18;8.70;;;8.00;;
19089;SDS011;9677;50.656;13.064;2022-10-16T09:35:50;8.60;;;7.90;;
19089;SDS011;9677;50.656;13.064;2022-10-16T09:38:22;9.50;;;8.00;;
19089;SDS011;9677;50.656;13.064;2022-10-16T09:40:54;8.60;;;7.90;;
19089;SDS011;9677;50.656;13.064;2022-10-16T09:43:31;8.70;;;8.00;;
19089;SDS011;9677;50.656;13.064;2022-10-16T09:46:05;8.60;;;7.90;;
19089;SDS011;9677;50.656;13.064;2022-10-16T09:48:37;8.63;;;7.93;;
19089;SDS011;9677;50.656;13.064;2022-10-16T09:51:16;8.70;;;8.00;;
19089;SDS011;9677;50.656;13.064;2022-10-16T09:53:53;8.70;;;8.00;;
19089;SDS011;9677;50.656;13.064;2022-10-16T09:56:25;8.93;;;8.13;;
19089;SDS011;9677;50.656;13.064;2022-10-16T09:58:56;8.47;;;7.80;;
19089;SDS011;9677;50.656;13.064;2022-10-16T10:01:29;8.67;;;7.97;;
19089;SDS011;9677;50.656;13.064;2022-10-16T10:04:06;8.50;;;7.80;;
19089;SDS011;9677;50.656;13.064;2022-10-16T10:06:35;8.50;;;7.80;;
19089;SDS011;9677;50.656;13.064;2022-10-16T10:09:19;8.53;;;7.83;;
19089;SDS011;9677;50.656;13.064;2022-10-16T10:11:51;8.93;;;8.13;;
19089;SDS011;9677;50.656;13.064;2022-10-16T10:14:23;8.60;;;7.90;;
19089;SDS011;9677;50.656;13.064;2022-10-16T10:17:13;8.77;;;8.07;;
19089;SDS011;9677;50.656;13.064;2022-10-16T10:19:47;8.90;;;8.00;;
19089;SDS011;9677;50.656;13.064;2022-10-16T10:22:26;8.33;;;7.70;;
19089;SDS011;9677;50.656;13.064;2022-10-16T10:25:15;8.80;;;8.10;;
19089;SDS011;9677;50.656;13.064;2022-10-16T10:28:02;8.40;;;7.70;;
19089;SDS011;9677;50.656;13.064;2022-10-16T10:30:51;9.07;;;8.27;;
19089;SDS011;9677;50.656;13.064;2022-10-16T10:33:30;8.80;;;7.90;;
19089;SDS011;9677;50.656;13.064;2022-10-16T10:39:00;11.53;;;7.90;;
19089;SDS011;9677;50.656;13.064;2022-10-16T10:41:44;8.70;;;8.00;;
19089;SDS011;9677;50.656;13.064;2022-10-16T10:44:35;8.57;;;7.67;;
19089;SDS011;9677;50.656;13.064;2022-10-16T10:47:23;8.50;;;7.80;;
19089;SDS011;9677;50.656;13.064;2022-10-16T10:50:06;8.73;;;7.93;;
19089;SDS011;9677;50.656;13.064;2022-10-16T10:52:47;8.50;;;7.80;;
19089;SDS011;9677;50.656;13.064;2022-10-16T10:55:31;8.83;;;8.10;;
19089;SDS011;9677;50.656;13.064;2022-10-16T10:58:14;8.90;;;8.10;;
19089;SDS011;9677;50.656;13.064;2022-10-16T11:01:22;8.90;;;8.00;;
19089;SDS011;9677;50.656;13.064;2022-10-16T11:04:11;8.43;;;7.80;;
19089;SDS011;9677;50.656;13.064;2022-10-16T11:07:02;8.60;;;7.80;;
19089;SDS011;9677;50.656;13.064;2022-10-16T11:09:36;12.30;;;8.00;;
19089;SDS011;9677;50.656;13.064;2022-10-16T11:12:10;9.27;;;7.80;;
19089;SDS011;9677;50.656;13.064;2022-10-16T11:14:46;8.60;;;7.90;;
19089;SDS011;9677;50.656;13.064;2022-10-16T11:17:22;8.50;;;7.80;;
19089;SDS011;9677;50.656;13.064;2022-10-16T11:19:56;11.50;;;7.70;;
19089;SDS011;9677;50.656;13.064;2022-10-16T11:22:32;8.67;;;7.90;;
19089;SDS011;9677;50.656;13.064;2022-10-16T11:25:11;8.50;;;7.80;;
19089;SDS011;9677;50.656;13.064;2022-10-16T11:27:45;8.30;;;7.60;;
19089;SDS011;9677;50.656;13.064;2022-10-16T11:30:20;8.50;;;7.80;;
19089;SDS011;9677;50.656;13.064;2022-10-16T11:32:54;8.30;;;7.60;;
19089;SDS011;9677;50.656;13.064;2022-10-16T11:35:37;8.37;;;7.67;;
19089;SDS011;9677;50.656;13.064;2022-10-16T11:38:12;8.40;;;7.70;;
19089;SDS011;9677;50.656;13.064;2022-10-16T11:40:50;8.80;;;8.00;;
19089;SDS011;9677;50.656;13.064;2022-10-16T11:43:25;8.60;;;7.90;;
19089;SDS011;9677;50.656;13.064;2022-10-16T11:46:02;8.60;;;7.90;;
19089;SDS011;9677;50.656;13.064;2022-10-16T11:48:38;8.50;;;7.80;;
19089;SDS011;9677;50.656;13.064;2022-10-16T11:51:14;8.37;;;7.67;;
19089;SDS011;9677;50.656;13.064;2022-10-16T11:53:53;8.30;;;7.60;;
19089;SDS011;9677;50.656;13.064;2022-10-16T11:56:29;8.70;;;8.00;;
19089;SDS011;9677;50.656;13.064;2022-10-16T11:59:02;9.47;;;7.67;;
19089;SDS011;9677;50.656;13.064;2022-10-16T12:01:38;8.80;;;7.90;;
19089;SDS011;9677;50.656;13.064;2022-10-16T12:04:15;8.50;;;7.80;;
19089;SDS011;9677;50.656;13.064;2022-10-16T12:06:52;8.60;;;7.90;;
19089;SDS011;9677;50.656;13.064;2022-10-16T12:09:26;8.40;;;7.70;;
19089;SDS011;9677;50.656;13.064;2022-10-16T12:11:59;8.63;;;7.93;;
19089;SDS011;9677;50.656;13.064;2022-10-16T12:14:35;8.40;;;7.70;;
19089;SDS011;9677;50.656;13.064;2022-10-16T12:17:27;8.40;;;7.70;;
19089;SDS011;9677;50.656;13.064;2022-10-16T12:20:18;8.60;;;7.90;;
19089;SDS011;9677;50.656;13.064;2022-10-16T12:22:54;8.50;;;7.80;;
19089;SDS011;9677;50.656;13.064;2022-10-16T12:25:25;8.50;;;7.80;;
19089;SDS011;9677;50.656;13.064;2022-10-16T12:27:59;8.60;;;7.70;;
19089;SDS011;9677;50.656;13.064;2022-10-16T12:30:31;8.57;;;7.77;;
19089;SDS011;9677;50.656;13.064;2022-10-16T12:33:03;8.50;;;7.80;;
19089;SDS011;9677;50.656;13.064;2022-10-16T12:35:48;8.40;;;7.70;;
19089;SDS011;9677;50.656;13.064;2022-10-16T12:38:18;8.73;;;7.93;;
19089;SDS011;9677;50.656;13.064;2022-10-16T12:40:55;8.40;;;7.70;;
19089;SDS011;9677;50.656;13.064;2022-10-16T12:43:36;8.80;;;7.83;;
19089;SDS011;9677;50.656;13.064;2022-10-16T12:46:33;8.53;;;7.83;;
19089;SDS011;9677;50.656;13.064;2022-10-16T12:49:14;8.50;;;7.80;;
19089;SDS011;9677;50.656;13.064;2022-10-16T12:51:56;8.50;;;7.80;;
19089;SDS011;9677;50.656;13.064;2022-10-16T12:54:27;8.27;;;7.57;;
19089;SDS011;9677;50.656;13.064;2022-10-16T12:57:03;8.33;;;7.63;;
19089;SDS011;9677;50.656;13.064;2022-10-16T12:59:48;8.40;;;7.70;;
19089;SDS011;9677;50.656;13.064;2022-10-16T13:02:36;8.40;;;7.60;;
19089;SDS011;9677;50.656;13.064;2022-10-16T13:05:43;8.40;;;7.70;;
19089;SDS011;9677;50.656;13.064;2022-10-16T13:08:29;8.30;;;7.60;;
19089;SDS011;9677;50.656;13.064;2022-10-16T13:11:21;8.60;;;7.90;;
19089;SDS011;9677;50.656;13.064;2022-10-16T13:14:01;8.67;;;7.77;;
19089;SDS011;9677;50.656;13.064;2022-10-16T13:17:14;8.43;;;7.63;;
19089;SDS011;9677;50.656;13.064;2022-10-16T13:19:52;8.40;;;7.70;;
19089;SDS011;9677;50.656;13.064;2022-10-16T13:22:32;8.50;;;7.80;;
19089;SDS011;9677;50.656;13.064;2022-10-16T13:25:13;8.77;;;7.93;;
19089;SDS011;9677;50.656;13.064;2022-10-16T13:27:52;8.70;;;7.90;;
19089;SDS011;9677;50.656;13.064;2022-10-16T13:30:24;8.53;;;7.83;;
19089;SDS011;9677;50.656;13.064;2022-10-16T13:33:00;9.00;;;8.20;;
19089;SDS011;9677;50.656;13.064;2022-10-16T13:35:31;8.70;;;7.80;;
19089;SDS011;9677;50.656;13.064;2022-10-16T13:38:05;8.30;;;7.60;;
19089;SDS011;9677;50.656;13.064;2022-10-16T13:40:53;8.90;;;8.00;;
19089;SDS011;9677;50.656;13.064;2022-10-16T13:43:25;8.97;;;8.17;;
19089;SDS011;9677;50.656;13.064;2022-10-16T13:45:57;8.73;;;7.93;;
19089;SDS011;9677;50.656;13.064;2022-10-16T13:48:31;8.70;;;8.00;;
19089;SDS011;9677;50.656;13.064;2022-10-16T13:51:02;8.30;;;7.60;;
19089;SDS011;9677;50.656;13.064;2022-10-16T13:53:34;8.60;;;7.90;;
19089;SDS011;9677;50.656;13.064;2022-10-16T13:56:04;8.40;;;7.70;;
19089;SDS011;9677;50.656;13.064;2022-10-16T13:58:37;8.83;;;7.93;;
19089;SDS011;9677;50.656;13.064;2022-10-16T14:01:11;8.43;;;7.67;;
19089;SDS011;9677;50.656;13.064;2022-10-16T14:03:47;8.40;;;7.70;;
19089;SDS011;9677;50.656;13.064;2022-10-16T14:06:17;8.50;;;7.80;;
19089;SDS011;9677;50.656;13.064;2022-10-16T14:08:50;8.40;;;7.70;;
19089;SDS011;9677;50.656;13.064;2022-10-16T14:11:25;14.03;;;7.90;;
19089;SDS011;9677;50.656;13.064;2022-10-16T14:13:54;8.50;;;7.80;;
19089;SDS011;9677;50.656;13.064;2022-10-16T14:16:24;8.40;;;7.70;;
19089;SDS011;9677;50.656;13.064;2022-10-16T14:18:58;8.50;;;7.80;;
19089;SDS011;9677;50.656;13.064;2022-10-16T14:21:29;8.80;;;7.90;;
19089;SDS011;9677;50.656;13.064;2022-10-16T14:23:58;8.80;;;8.00;;
19089;SDS011;9677;50.656;13.064;2022-10-16T14:26:27;8.50;;;7.80;;
19089;SDS011;9677;50.656;13.064;2022-10-16T14:29:04;8.50;;;7.80;;
19089;SDS011;9677;50.656;13.064;2022-10-16T14:31:40;8.50;;;7.80;;
19089;SDS011;9677;50.656;13.064;2022-10-16T14:36:59;8.27;;;7.57;;
19089;SDS011;9677;50.656;13.064;2022-10-16T14:39:34;8.70;;;7.80;;
19089;SDS011;9677;50.656;13.064;2022-10-16T14:42:03;8.30;;;7.60;;
19089;SDS011;9677;50.656;13.064;2022-10-16T14:44:32;8.60;;;7.90;;
19089;SDS011;9677;50.656;13.064;2022-10-16T14:47:12;8.47;;;7.80;;
19089;SDS011;9677;50.656;13.064;2022-10-16T14:49:50;8.77;;;8.07;;
19089;SDS011;9677;50.656;13.064;2022-10-16T14:52:19;8.50;;;7.80;;
19089;SDS011;9677;50.656;13.064;2022-10-16T14:54:48;8.60;;;7.90;;
19089;SDS011;9677;50.656;13.064;2022-10-16T14:57:18;8.57;;;7.80;;
19089;SDS011;9677;50.656;13.064;2022-10-16T14:59:48;8.60;;;7.90;;
19089;SDS011;9677;50.656;13.064;2022-10-16T15:02:20;8.40;;;7.70;;
19089;SDS011;9677;50.656;13.064;2022-10-16T15:04:57;8.40;;;7.70;;
19089;SDS011;9677;50.656;13.064;2022-10-16T15:07:32;8.70;;;7.90;;
19089;SDS011;9677;50.656;13.064;2022-10-16T15:10:01;8.57;;;7.77;;
19089;SDS011;9677;50.656;13.064;2022-10-16T15:12:30;8.77;;;7.97;;
19089;SDS011;9677;50.656;13.064;2022-10-16T15:14:59;10.53;;;7.90;;
19089;SDS011;9677;50.656;13.064;2022-10-16T15:17:28;8.20;;;7.50;;
19089;SDS011;9677;50.656;13.064;2022-10-16T15:19:58;8.50;;;7.80;;
19089;SDS011;9677;50.656;13.064;2022-10-16T15:22:26;8.80;;;8.10;;
19089;SDS011;9677;50.656;13.064;2022-10-16T15:24:55;8.30;;;7.60;;
19089;SDS011;9677;50.656;13.064;2022-10-16T15:27:24;8.40;;;7.70;;
19089;SDS011;9677;50.656;13.064;2022-10-16T15:29:53;8.80;;;8.10;;
19089;SDS011;9677;50.656;13.064;2022-10-16T15:32:21;8.60;;;7.90;;
19089;SDS011;9677;50.656;13.064;2022-10-16T15:34:50;8.67;;;7.97;;
19089;SDS011;9677;50.656;13.064;2022-10-16T15:37:20;8.40;;;7.60;;